sensor_id;sensor_type;location;lat;lon;timestamp;pressure;altitude;pressure_sealevel;temperature;humidity
46642;BME280;32370;41.864;-88.124;2023-04-25T00:01:39;99252.41;;;10.50;31.52
46642;BME280;32370;41.864;-88.124;2023-04-25T00:04:07;99250.91;;;10.51;31.12
46642;BME280;32370;41.864;-88.124;2023-04-25T00:06:35;99252.55;;;10.60;31.01
46642;BME280;32370;41.864;-88.124;2023-04-25T00:09:04;99248.86;;;10.68;31.62
46642;BME280;32370;41.864;-88.124;2023-04-25T00:11:32;99250.43;;;10.45;31.93
46642;BME280;32370;41.864;-88.124;2023-04-25T00:14:00;99250.55;;;10.35;31.07
46642;BME280;32370;41.864;-88.124;2023-04-25T00:16:28;99246.24;;;10.20;30.86
46642;BME280;32370;41.864;-88.124;2023-04-25T00:18:56;99252.28;;;10.28;31.10
46642;BME280;32370;41.864;-88.124;2023-04-25T00:21:24;99257.41;;;9.90;30.78
46642;BME280;32370;41.864;-88.124;2023-04-25T00:23:53;99258.30;;;10.29;29.51
46642;BME280;32370;41.864;-88.124;2023-04-25T00:26:20;99256.90;;;9.82;30.22
46642;BME280;32370;41.864;-88.124;2023-04-25T00:28:48;99257.34;;;9.99;31.58
46642;BME280;32370;41.864;-88.124;2023-04-25T00:31:16;99255.49;;;9.31;32.00
46642;BME280;32370;41.864;-88.124;2023-04-25T00:33:44;99255.02;;;9.10;34.29
46642;BME280;32370;41.864;-88.124;2023-04-25T00:36:12;99256.93;;;8.82;36.93
46642;BME280;32370;41.864;-88.124;2023-04-25T00:38:39;99257.66;;;8.23;36.20
46642;BME280;32370;41.864;-88.124;2023-04-25T00:41:08;99257.38;;;8.37;35.98
46642;BME280;32370;41.864;-88.124;2023-04-25T00:43:37;99261.38;;;8.53;36.94
46642;BME280;32370;41.864;-88.124;2023-04-25T00:46:05;99261.62;;;7.79;37.23
46642;BME280;32370;41.864;-88.124;2023-04-25T00:48:33;99260.66;;;7.06;38.49
46642;BME280;32370;41.864;-88.124;2023-04-25T00:51:00;99258.06;;;7.26;38.37
46642;BME280;32370;41.864;-88.124;2023-04-25T00:53:28;99252.40;;;7.59;39.78
46642;BME280;32370;41.864;-88.124;2023-04-25T00:55:57;99257.37;;;7.41;38.45
46642;BME280;32370;41.864;-88.124;2023-04-25T00:58:27;99257.80;;;7.52;38.72
46642;BME280;32370;41.864;-88.124;2023-04-25T01:00:56;99253.78;;;7.52;39.59
46642;BME280;32370;41.864;-88.124;2023-04-25T01:03:25;99249.80;;;7.11;40.13
46642;BME280;32370;41.864;-88.124;2023-04-25T01:05:53;99250.44;;;7.33;40.20
46642;BME280;32370;41.864;-88.124;2023-04-25T01:08:21;99254.53;;;6.57;41.06
46642;BME280;32370;41.864;-88.124;2023-04-25T01:10:52;99258.44;;;6.99;40.64
46642;BME280;32370;41.864;-88.124;2023-04-25T01:13:19;99260.17;;;6.94;39.78
46642;BME280;32370;41.864;-88.124;2023-04-25T01:15:47;99258.58;;;6.59;40.70
46642;BME280;32370;41.864;-88.124;2023-04-25T01:18:15;99260.84;;;6.23;41.56
46642;BME280;32370;41.864;-88.124;2023-04-25T01:20:44;99262.11;;;6.44;41.32
46642;BME280;32370;41.864;-88.124;2023-04-25T01:23:14;99268.37;;;6.08;41.33
46642;BME280;32370;41.864;-88.124;2023-04-25T01:25:42;99271.49;;;6.13;41.61
46642;BME280;32370;41.864;-88.124;2023-04-25T01:28:10;99275.50;;;6.40;40.83
46642;BME280;32370;41.864;-88.124;2023-04-25T01:30:38;99272.51;;;6.86;40.96
46642;BME280;32370;41.864;-88.124;2023-04-25T01:33:08;99269.71;;;6.53;41.05
46642;BME280;32370;41.864;-88.124;2023-04-25T01:35:36;99267.66;;;6.51;41.26
46642;BME280;32370;41.864;-88.124;2023-04-25T01:38:04;99272.08;;;6.59;40.67
46642;BME280;32370;41.864;-88.124;2023-04-25T01:40:32;99273.98;;;6.48;40.76
46642;BME280;32370;41.864;-88.124;2023-04-25T01:43:01;99276.16;;;6.20;40.93
46642;BME280;32370;41.864;-88.124;2023-04-25T01:45:29;99269.66;;;6.45;42.06
46642;BME280;32370;41.864;-88.124;2023-04-25T01:47:57;99265.94;;;6.56;41.49
46642;BME280;32370;41.864;-88.124;2023-04-25T01:50:26;99268.94;;;6.91;41.12
46642;BME280;32370;41.864;-88.124;2023-04-25T01:52:54;99269.00;;;6.53;40.62
46642;BME280;32370;41.864;-88.124;2023-04-25T01:55:23;99271.99;;;6.76;43.06
46642;BME280;32370;41.864;-88.124;2023-04-25T01:57:51;99278.49;;;6.59;41.30
46642;BME280;32370;41.864;-88.124;2023-04-25T02:00:21;99280.00;;;6.53;40.71
46642;BME280;32370;41.864;-88.124;2023-04-25T02:02:49;99280.86;;;7.09;40.82
46642;BME280;32370;41.864;-88.124;2023-04-25T02:05:17;99283.79;;;6.91;41.40
46642;BME280;32370;41.864;-88.124;2023-04-25T02:07:45;99280.47;;;6.70;40.66
46642;BME280;32370;41.864;-88.124;2023-04-25T02:10:13;99278.01;;;6.64;41.68
46642;BME280;32370;41.864;-88.124;2023-04-25T02:12:40;99282.02;;;6.80;40.34
46642;BME280;32370;41.864;-88.124;2023-04-25T02:15:09;99284.04;;;6.73;40.38
46642;BME280;32370;41.864;-88.124;2023-04-25T02:17:37;99286.82;;;6.63;40.37
46642;BME280;32370;41.864;-88.124;2023-04-25T02:20:06;99283.39;;;7.12;40.96
46642;BME280;32370;41.864;-88.124;2023-04-25T02:22:35;99284.23;;;6.89;40.85
46642;BME280;32370;41.864;-88.124;2023-04-25T02:25:03;99286.70;;;6.54;41.25
46642;BME280;32370;41.864;-88.124;2023-04-25T02:27:31;99277.86;;;6.48;42.66
46642;BME280;32370;41.864;-88.124;2023-04-25T02:29:59;99274.78;;;6.81;41.37
46642;BME280;32370;41.864;-88.124;2023-04-25T02:32:27;99270.29;;;6.48;42.96
46642;BME280;32370;41.864;-88.124;2023-04-25T02:34:55;99275.98;;;6.54;41.70
46642;BME280;32370;41.864;-88.124;2023-04-25T02:37:23;99277.32;;;6.67;41.82
46642;BME280;32370;41.864;-88.124;2023-04-25T02:39:51;99278.44;;;6.51;41.88
46642;BME280;32370;41.864;-88.124;2023-04-25T02:42:19;99275.71;;;7.01;41.02
46642;BME280;32370;41.864;-88.124;2023-04-25T02:44:47;99274.20;;;6.85;41.18
46642;BME280;32370;41.864;-88.124;2023-04-25T02:47:14;99269.67;;;6.74;40.62
46642;BME280;32370;41.864;-88.124;2023-04-25T02:49:42;99269.85;;;6.56;41.55
46642;BME280;32370;41.864;-88.124;2023-04-25T02:52:10;99265.94;;;6.29;41.05
46642;BME280;32370;41.864;-88.124;2023-04-25T02:54:38;99266.26;;;6.86;40.75
46642;BME280;32370;41.864;-88.124;2023-04-25T02:57:06;99269.71;;;6.34;40.21
46642;BME280;32370;41.864;-88.124;2023-04-25T02:59:35;99275.47;;;6.56;41.35
46642;BME280;32370;41.864;-88.124;2023-04-25T03:02:04;99269.02;;;6.46;41.50
46642;BME280;32370;41.864;-88.124;2023-04-25T03:04:31;99267.34;;;6.80;40.78
46642;BME280;32370;41.864;-88.124;2023-04-25T03:06:59;99266.86;;;6.37;41.41
46642;BME280;32370;41.864;-88.124;2023-04-25T03:09:27;99263.32;;;7.01;41.21
46642;BME280;32370;41.864;-88.124;2023-04-25T03:11:55;99260.69;;;7.17;41.79
46642;BME280;32370;41.864;-88.124;2023-04-25T03:14:23;99261.54;;;6.77;41.25
46642;BME280;32370;41.864;-88.124;2023-04-25T03:16:51;99258.00;;;6.74;41.53
46642;BME280;32370;41.864;-88.124;2023-04-25T03:19:19;99262.37;;;6.78;41.35
46642;BME280;32370;41.864;-88.124;2023-04-25T03:21:47;99269.08;;;6.66;40.96
46642;BME280;32370;41.864;-88.124;2023-04-25T03:24:14;99273.54;;;7.26;40.85
46642;BME280;32370;41.864;-88.124;2023-04-25T03:26:43;99280.60;;;7.05;41.30
46642;BME280;32370;41.864;-88.124;2023-04-25T03:29:10;99283.38;;;7.16;41.15
46642;BME280;32370;41.864;-88.124;2023-04-25T03:31:38;99281.79;;;7.47;40.80
46642;BME280;32370;41.864;-88.124;2023-04-25T03:34:06;99281.09;;;7.23;40.77
46642;BME280;32370;41.864;-88.124;2023-04-25T03:36:34;99279.72;;;7.40;41.15
46642;BME280;32370;41.864;-88.124;2023-04-25T03:39:02;99279.77;;;7.01;41.90
46642;BME280;32370;41.864;-88.124;2023-04-25T03:41:30;99281.85;;;7.29;41.66
46642;BME280;32370;41.864;-88.124;2023-04-25T03:43:58;99281.88;;;7.23;42.15
46642;BME280;32370;41.864;-88.124;2023-04-25T03:46:26;99277.81;;;7.07;42.63
46642;BME280;32370;41.864;-88.124;2023-04-25T03:48:53;99277.84;;;7.19;42.41
46642;BME280;32370;41.864;-88.124;2023-04-25T03:51:21;99279.47;;;6.91;42.39
46642;BME280;32370;41.864;-88.124;2023-04-25T03:53:50;99280.22;;;6.80;42.94
46642;BME280;32370;41.864;-88.124;2023-04-25T03:56:18;99281.46;;;6.86;43.12
46642;BME280;32370;41.864;-88.124;2023-04-25T03:58:46;99281.84;;;7.16;43.49
46642;BME280;32370;41.864;-88.124;2023-04-25T04:01:14;99280.07;;;7.32;45.22
46642;BME280;32370;41.864;-88.124;2023-04-25T04:03:42;99277.26;;;7.36;46.40
46642;BME280;32370;41.864;-88.124;2023-04-25T04:06:10;99279.77;;;7.10;48.71
46642;BME280;32370;41.864;-88.124;2023-04-25T04:08:37;99282.40;;;7.07;50.16
46642;BME280;32370;41.864;-88.124;2023-04-25T04:11:05;99279.38;;;7.10;50.99
46642;BME280;32370;41.864;-88.124;2023-04-25T04:13:33;99282.56;;;6.94;51.39
46642;BME280;32370;41.864;-88.124;2023-04-25T04:16:01;99288.24;;;6.98;51.47
46642;BME280;32370;41.864;-88.124;2023-04-25T04:18:29;99291.88;;;7.04;53.11
46642;BME280;32370;41.864;-88.124;2023-04-25T04:20:57;99297.88;;;7.22;52.24
46642;BME280;32370;41.864;-88.124;2023-04-25T04:23:25;99301.37;;;6.72;52.91
46642;BME280;32370;41.864;-88.124;2023-04-25T04:25:52;99302.56;;;6.95;53.33
46642;BME280;32370;41.864;-88.124;2023-04-25T04:28:20;99304.72;;;6.68;54.70
46642;BME280;32370;41.864;-88.124;2023-04-25T04:30:48;99311.33;;;6.70;54.46
46642;BME280;32370;41.864;-88.124;2023-04-25T04:33:16;99319.45;;;6.90;56.70
46642;BME280;32370;41.864;-88.124;2023-04-25T04:35:44;99323.40;;;6.92;58.86
46642;BME280;32370;41.864;-88.124;2023-04-25T04:38:12;99322.33;;;6.68;60.97
46642;BME280;32370;41.864;-88.124;2023-04-25T04:40:40;99323.15;;;6.18;64.92
46642;BME280;32370;41.864;-88.124;2023-04-25T04:43:08;99316.49;;;6.42;64.96
46642;BME280;32370;41.864;-88.124;2023-04-25T04:45:36;99312.09;;;6.15;66.37
46642;BME280;32370;41.864;-88.124;2023-04-25T04:48:05;99304.74;;;6.18;68.81
46642;BME280;32370;41.864;-88.124;2023-04-25T04:50:33;99294.12;;;5.54;73.25
46642;BME280;32370;41.864;-88.124;2023-04-25T04:53:03;99285.54;;;5.87;71.73
46642;BME280;32370;41.864;-88.124;2023-04-25T04:55:31;99282.71;;;5.79;73.20
46642;BME280;32370;41.864;-88.124;2023-04-25T04:57:59;99273.03;;;5.62;75.70
46642;BME280;32370;41.864;-88.124;2023-04-25T05:00:27;99271.94;;;5.83;73.43
46642;BME280;32370;41.864;-88.124;2023-04-25T05:02:55;99273.87;;;5.70;73.01
46642;BME280;32370;41.864;-88.124;2023-04-25T05:05:25;99267.87;;;5.82;74.42
46642;BME280;32370;41.864;-88.124;2023-04-25T05:07:53;99262.35;;;5.81;76.01
46642;BME280;32370;41.864;-88.124;2023-04-25T05:10:21;99263.06;;;5.90;76.17
46642;BME280;32370;41.864;-88.124;2023-04-25T05:12:48;99259.84;;;5.06;81.16
46642;BME280;32370;41.864;-88.124;2023-04-25T05:15:17;99255.45;;;5.16;82.18
46642;BME280;32370;41.864;-88.124;2023-04-25T05:17:44;99257.55;;;5.97;79.31
46642;BME280;32370;41.864;-88.124;2023-04-25T05:20:12;99263.55;;;6.37;78.10
46642;BME280;32370;41.864;-88.124;2023-04-25T05:22:40;99262.07;;;6.58;77.82
46642;BME280;32370;41.864;-88.124;2023-04-25T05:25:09;99267.17;;;6.76;77.46
46642;BME280;32370;41.864;-88.124;2023-04-25T05:27:37;99270.42;;;6.41;78.13
46642;BME280;32370;41.864;-88.124;2023-04-25T05:30:06;99269.84;;;6.47;78.11
46642;BME280;32370;41.864;-88.124;2023-04-25T05:32:34;99274.47;;;6.80;77.64
46642;BME280;32370;41.864;-88.124;2023-04-25T05:35:02;99264.12;;;6.86;77.81
46642;BME280;32370;41.864;-88.124;2023-04-25T05:37:29;99262.01;;;6.49;78.70
46642;BME280;32370;41.864;-88.124;2023-04-25T05:39:57;99259.49;;;6.19;79.04
46642;BME280;32370;41.864;-88.124;2023-04-25T05:42:25;99261.36;;;6.40;79.39
46642;BME280;32370;41.864;-88.124;2023-04-25T05:44:53;99255.80;;;6.22;79.13
46642;BME280;32370;41.864;-88.124;2023-04-25T05:47:21;99244.72;;;6.94;78.89
46642;BME280;32370;41.864;-88.124;2023-04-25T05:49:49;99244.14;;;6.34;80.24
46642;BME280;32370;41.864;-88.124;2023-04-25T05:52:17;99243.36;;;6.19;81.97
46642;BME280;32370;41.864;-88.124;2023-04-25T05:54:45;99245.61;;;5.93;80.81
46642;BME280;32370;41.864;-88.124;2023-04-25T05:57:20;99249.80;;;6.04;81.26
46642;BME280;32370;41.864;-88.124;2023-04-25T05:59:48;99257.41;;;5.74;81.94
46642;BME280;32370;41.864;-88.124;2023-04-25T06:02:16;99264.73;;;6.41;81.15
46642;BME280;32370;41.864;-88.124;2023-04-25T06:04:44;99263.23;;;6.10;81.18
46642;BME280;32370;41.864;-88.124;2023-04-25T06:07:13;99260.14;;;6.46;80.70
46642;BME280;32370;41.864;-88.124;2023-04-25T06:09:41;99262.54;;;6.14;81.34
46642;BME280;32370;41.864;-88.124;2023-04-25T06:12:09;99263.81;;;6.20;81.46
46642;BME280;32370;41.864;-88.124;2023-04-25T06:14:37;99262.86;;;5.45;82.98
46642;BME280;32370;41.864;-88.124;2023-04-25T06:17:05;99262.52;;;5.97;83.48
46642;BME280;32370;41.864;-88.124;2023-04-25T06:19:33;99261.37;;;6.19;82.95
46642;BME280;32370;41.864;-88.124;2023-04-25T06:22:01;99253.82;;;5.64;83.37
46642;BME280;32370;41.864;-88.124;2023-04-25T06:24:29;99245.54;;;5.64;85.68
46642;BME280;32370;41.864;-88.124;2023-04-25T06:26:57;99244.22;;;5.56;85.17
46642;BME280;32370;41.864;-88.124;2023-04-25T06:29:25;99238.72;;;5.49;85.43
46642;BME280;32370;41.864;-88.124;2023-04-25T06:31:53;99243.19;;;5.43;85.56
46642;BME280;32370;41.864;-88.124;2023-04-25T06:34:21;99238.09;;;5.04;85.57
46642;BME280;32370;41.864;-88.124;2023-04-25T06:36:49;99235.80;;;4.72;85.81
46642;BME280;32370;41.864;-88.124;2023-04-25T06:39:17;99237.52;;;5.24;84.66
46642;BME280;32370;41.864;-88.124;2023-04-25T06:41:45;99235.63;;;5.01;83.96
46642;BME280;32370;41.864;-88.124;2023-04-25T06:44:12;99237.56;;;5.02;84.14
46642;BME280;32370;41.864;-88.124;2023-04-25T06:46:40;99240.08;;;4.60;85.18
46642;BME280;32370;41.864;-88.124;2023-04-25T06:49:08;99243.01;;;4.91;86.22
46642;BME280;32370;41.864;-88.124;2023-04-25T06:51:36;99245.68;;;4.84;85.93
46642;BME280;32370;41.864;-88.124;2023-04-25T06:54:04;99240.14;;;4.79;84.97
46642;BME280;32370;41.864;-88.124;2023-04-25T06:56:32;99236.32;;;5.13;84.40
46642;BME280;32370;41.864;-88.124;2023-04-25T06:59:00;99238.66;;;5.10;84.78
46642;BME280;32370;41.864;-88.124;2023-04-25T07:01:28;99238.94;;;5.22;85.16
46642;BME280;32370;41.864;-88.124;2023-04-25T07:03:56;99244.72;;;5.52;84.42
46642;BME280;32370;41.864;-88.124;2023-04-25T07:06:24;99243.07;;;5.20;84.75
46642;BME280;32370;41.864;-88.124;2023-04-25T07:08:52;99239.18;;;5.43;84.83
46642;BME280;32370;41.864;-88.124;2023-04-25T07:11:20;99234.00;;;5.10;85.99
46642;BME280;32370;41.864;-88.124;2023-04-25T07:13:47;99233.33;;;5.30;86.37
46642;BME280;32370;41.864;-88.124;2023-04-25T07:16:16;99229.19;;;5.21;86.92
46642;BME280;32370;41.864;-88.124;2023-04-25T07:18:44;99225.58;;;5.15;87.92
46642;BME280;32370;41.864;-88.124;2023-04-25T07:21:12;99226.72;;;5.29;87.73
46642;BME280;32370;41.864;-88.124;2023-04-25T07:23:40;99223.04;;;5.74;85.64
46642;BME280;32370;41.864;-88.124;2023-04-25T07:26:08;99217.60;;;5.97;84.56
46642;BME280;32370;41.864;-88.124;2023-04-25T07:28:36;99210.58;;;5.49;86.54
46642;BME280;32370;41.864;-88.124;2023-04-25T07:31:04;99208.27;;;5.50;85.33
46642;BME280;32370;41.864;-88.124;2023-04-25T07:33:32;99205.56;;;5.43;86.01
46642;BME280;32370;41.864;-88.124;2023-04-25T07:36:00;99207.96;;;5.26;86.07
46642;BME280;32370;41.864;-88.124;2023-04-25T07:38:28;99212.86;;;5.48;86.08
46642;BME280;32370;41.864;-88.124;2023-04-25T07:40:56;99222.12;;;5.14;87.35
46642;BME280;32370;41.864;-88.124;2023-04-25T07:43:24;99223.87;;;4.93;89.08
46642;BME280;32370;41.864;-88.124;2023-04-25T07:45:52;99233.11;;;5.30;87.96
46642;BME280;32370;41.864;-88.124;2023-04-25T07:48:20;99229.92;;;5.14;88.22
46642;BME280;32370;41.864;-88.124;2023-04-25T07:50:48;99237.70;;;5.07;87.67
46642;BME280;32370;41.864;-88.124;2023-04-25T07:53:16;99231.02;;;5.57;85.79
46642;BME280;32370;41.864;-88.124;2023-04-25T07:55:44;99226.12;;;5.60;85.72
46642;BME280;32370;41.864;-88.124;2023-04-25T07:58:12;99219.78;;;5.15;86.28
46642;BME280;32370;41.864;-88.124;2023-04-25T08:00:40;99222.57;;;5.23;89.24
46642;BME280;32370;41.864;-88.124;2023-04-25T08:03:09;99220.31;;;4.73;92.63
46642;BME280;32370;41.864;-88.124;2023-04-25T08:05:37;99224.08;;;5.10;91.01
46642;BME280;32370;41.864;-88.124;2023-04-25T08:08:05;99223.93;;;4.95;90.94
46642;BME280;32370;41.864;-88.124;2023-04-25T08:10:35;99221.00;;;5.71;88.85
46642;BME280;32370;41.864;-88.124;2023-04-25T08:13:03;99219.30;;;5.25;91.34
46642;BME280;32370;41.864;-88.124;2023-04-25T08:15:31;99222.47;;;4.76;93.69
46642;BME280;32370;41.864;-88.124;2023-04-25T08:17:59;99225.52;;;5.02;92.73
46642;BME280;32370;41.864;-88.124;2023-04-25T08:20:27;99230.92;;;5.09;92.16
46642;BME280;32370;41.864;-88.124;2023-04-25T08:22:54;99236.21;;;5.75;89.93
46642;BME280;32370;41.864;-88.124;2023-04-25T08:25:23;99235.75;;;4.78;91.30
46642;BME280;32370;41.864;-88.124;2023-04-25T08:27:50;99240.76;;;4.82;90.91
46642;BME280;32370;41.864;-88.124;2023-04-25T08:30:18;99245.02;;;4.72;92.28
46642;BME280;32370;41.864;-88.124;2023-04-25T08:32:46;99239.66;;;4.86;92.04
46642;BME280;32370;41.864;-88.124;2023-04-25T08:35:14;99244.74;;;4.92;91.32
46642;BME280;32370;41.864;-88.124;2023-04-25T08:37:42;99253.40;;;4.30;92.46
46642;BME280;32370;41.864;-88.124;2023-04-25T08:40:14;99244.78;;;4.95;90.50
46642;BME280;32370;41.864;-88.124;2023-04-25T08:42:42;99250.19;;;5.04;90.56
46642;BME280;32370;41.864;-88.124;2023-04-25T08:45:11;99235.95;;;5.17;91.81
46642;BME280;32370;41.864;-88.124;2023-04-25T08:47:39;99241.83;;;4.49;94.03
46642;BME280;32370;41.864;-88.124;2023-04-25T08:50:08;99246.80;;;3.65;100.00
46642;BME280;32370;41.864;-88.124;2023-04-25T08:52:39;99236.18;;;4.79;96.89
46642;BME280;32370;41.864;-88.124;2023-04-25T08:55:10;99229.04;;;4.74;95.77
46642;BME280;32370;41.864;-88.124;2023-04-25T08:57:40;99234.22;;;4.80;95.95
46642;BME280;32370;41.864;-88.124;2023-04-25T09:00:10;99235.87;;;4.71;96.49
46642;BME280;32370;41.864;-88.124;2023-04-25T09:02:38;99242.64;;;4.95;95.80
46642;BME280;32370;41.864;-88.124;2023-04-25T09:05:07;99241.65;;;5.86;93.92
46642;BME280;32370;41.864;-88.124;2023-04-25T09:07:36;99245.95;;;4.65;96.83
46642;BME280;32370;41.864;-88.124;2023-04-25T09:10:04;99245.42;;;4.84;96.27
46642;BME280;32370;41.864;-88.124;2023-04-25T09:12:33;99244.04;;;4.71;97.15
46642;BME280;32370;41.864;-88.124;2023-04-25T09:15:05;99240.17;;;5.07;96.45
46642;BME280;32370;41.864;-88.124;2023-04-25T09:17:34;99239.99;;;4.34;96.67
46642;BME280;32370;41.864;-88.124;2023-04-25T09:20:11;99241.29;;;4.33;97.77
46642;BME280;32370;41.864;-88.124;2023-04-25T09:22:39;99242.74;;;4.94;96.33
46642;BME280;32370;41.864;-88.124;2023-04-25T09:25:11;99246.75;;;4.65;96.46
46642;BME280;32370;41.864;-88.124;2023-04-25T09:27:50;99240.13;;;4.48;95.82
46642;BME280;32370;41.864;-88.124;2023-04-25T09:30:19;99231.90;;;4.57;96.66
46642;BME280;32370;41.864;-88.124;2023-04-25T09:32:57;99222.49;;;4.05;96.77
46642;BME280;32370;41.864;-88.124;2023-04-25T09:35:36;99222.55;;;4.31;96.83
46642;BME280;32370;41.864;-88.124;2023-04-25T09:38:08;99219.18;;;4.60;96.25
46642;BME280;32370;41.864;-88.124;2023-04-25T09:40:40;99214.78;;;4.10;97.69
46642;BME280;32370;41.864;-88.124;2023-04-25T09:43:10;99210.02;;;4.05;97.14
46642;BME280;32370;41.864;-88.124;2023-04-25T09:45:42;99201.26;;;3.91;97.82
46642;BME280;32370;41.864;-88.124;2023-04-25T09:48:11;99205.04;;;3.84;99.76
46642;BME280;32370;41.864;-88.124;2023-04-25T09:50:38;99206.40;;;4.13;97.10
46642;BME280;32370;41.864;-88.124;2023-04-25T09:53:06;99207.05;;;4.21;94.83
46642;BME280;32370;41.864;-88.124;2023-04-25T09:55:35;99200.67;;;3.84;96.33
46642;BME280;32370;41.864;-88.124;2023-04-25T09:58:05;99204.08;;;3.82;96.43
46642;BME280;32370;41.864;-88.124;2023-04-25T10:00:33;99201.10;;;3.91;96.49
46642;BME280;32370;41.864;-88.124;2023-04-25T10:03:02;99194.54;;;4.28;95.90
46642;BME280;32370;41.864;-88.124;2023-04-25T10:05:33;99200.56;;;3.85;95.98
46642;BME280;32370;41.864;-88.124;2023-04-25T10:08:03;99203.79;;;4.33;93.68
46642;BME280;32370;41.864;-88.124;2023-04-25T10:10:31;99205.16;;;4.09;94.72
46642;BME280;32370;41.864;-88.124;2023-04-25T10:13:01;99205.64;;;4.24;96.05
46642;BME280;32370;41.864;-88.124;2023-04-25T10:15:30;99211.15;;;4.16;97.00
46642;BME280;32370;41.864;-88.124;2023-04-25T10:17:59;99217.09;;;3.76;97.39
46642;BME280;32370;41.864;-88.124;2023-04-25T10:20:28;99223.93;;;3.79;98.31
46642;BME280;32370;41.864;-88.124;2023-04-25T10:23:03;99227.87;;;3.80;98.29
46642;BME280;32370;41.864;-88.124;2023-04-25T10:25:31;99233.82;;;3.73;97.32
46642;BME280;32370;41.864;-88.124;2023-04-25T10:28:00;99230.75;;;3.40;97.97
46642;BME280;32370;41.864;-88.124;2023-04-25T10:30:27;99230.89;;;3.04;100.00
46642;BME280;32370;41.864;-88.124;2023-04-25T10:32:56;99229.21;;;2.75;100.00
46642;BME280;32370;41.864;-88.124;2023-04-25T10:35:26;99225.92;;;2.74;100.00
46642;BME280;32370;41.864;-88.124;2023-04-25T10:38:03;99217.31;;;3.02;100.00
46642;BME280;32370;41.864;-88.124;2023-04-25T10:40:31;99216.45;;;2.68;100.00
46642;BME280;32370;41.864;-88.124;2023-04-25T10:43:34;99211.14;;;2.89;100.00
46642;BME280;32370;41.864;-88.124;2023-04-25T10:46:12;99217.04;;;2.95;100.00
46642;BME280;32370;41.864;-88.124;2023-04-25T10:48:46;99221.61;;;2.75;100.00
46642;BME280;32370;41.864;-88.124;2023-04-25T10:51:18;99224.77;;;2.84;100.00
46642;BME280;32370;41.864;-88.124;2023-04-25T10:53:47;99230.42;;;2.92;100.00
46642;BME280;32370;41.864;-88.124;2023-04-25T10:56:26;99237.18;;;2.84;100.00
46642;BME280;32370;41.864;-88.124;2023-04-25T10:59:05;99236.64;;;2.71;100.00
46642;BME280;32370;41.864;-88.124;2023-04-25T11:01:38;99227.15;;;2.83;100.00
46642;BME280;32370;41.864;-88.124;2023-04-25T11:04:06;99220.76;;;2.24;100.00
46642;BME280;32370;41.864;-88.124;2023-04-25T11:07:00;99225.12;;;2.56;100.00
46642;BME280;32370;41.864;-88.124;2023-04-25T11:09:30;99226.83;;;2.62;100.00
46642;BME280;32370;41.864;-88.124;2023-04-25T11:12:00;99228.76;;;2.50;100.00
46642;BME280;32370;41.864;-88.124;2023-04-25T11:14:30;99230.62;;;2.55;100.00
46642;BME280;32370;41.864;-88.124;2023-04-25T11:16:59;99241.88;;;1.96;100.00
46642;BME280;32370;41.864;-88.124;2023-04-25T11:19:27;99244.94;;;2.26;100.00
46642;BME280;32370;41.864;-88.124;2023-04-25T11:21:56;99246.06;;;2.60;100.00
46642;BME280;32370;41.864;-88.124;2023-04-25T11:24:27;99241.26;;;2.14;100.00
46642;BME280;32370;41.864;-88.124;2023-04-25T11:26:55;99235.61;;;2.50;100.00
46642;BME280;32370;41.864;-88.124;2023-04-25T11:29:23;99239.53;;;2.14;100.00
46642;BME280;32370;41.864;-88.124;2023-04-25T11:31:55;99244.52;;;1.80;100.00
46642;BME280;32370;41.864;-88.124;2023-04-25T11:34:24;99247.49;;;2.77;100.00
46642;BME280;32370;41.864;-88.124;2023-04-25T11:36:53;99247.62;;;2.15;100.00
46642;BME280;32370;41.864;-88.124;2023-04-25T11:39:21;99249.33;;;2.13;100.00
46642;BME280;32370;41.864;-88.124;2023-04-25T11:41:51;99246.54;;;1.91;100.00
46642;BME280;32370;41.864;-88.124;2023-04-25T11:44:21;99252.93;;;2.03;100.00
46642;BME280;32370;41.864;-88.124;2023-04-25T11:46:49;99254.63;;;2.41;100.00
46642;BME280;32370;41.864;-88.124;2023-04-25T11:49:17;99250.52;;;2.38;100.00
46642;BME280;32370;41.864;-88.124;2023-04-25T11:51:46;99252.15;;;2.27;100.00
46642;BME280;32370;41.864;-88.124;2023-04-25T11:54:15;99250.67;;;1.88;100.00
46642;BME280;32370;41.864;-88.124;2023-04-25T11:56:43;99252.54;;;1.63;100.00
46642;BME280;32370;41.864;-88.124;2023-04-25T11:59:12;99252.08;;;1.86;100.00
46642;BME280;32370;41.864;-88.124;2023-04-25T12:01:47;99248.00;;;1.75;100.00
46642;BME280;32370;41.864;-88.124;2023-04-25T12:04:16;99241.22;;;1.85;100.00
46642;BME280;32370;41.864;-88.124;2023-04-25T12:06:45;99245.53;;;2.00;100.00
46642;BME280;32370;41.864;-88.124;2023-04-25T12:09:15;99247.62;;;2.06;100.00
46642;BME280;32370;41.864;-88.124;2023-04-25T12:11:44;99248.72;;;1.80;100.00
46642;BME280;32370;41.864;-88.124;2023-04-25T12:14:19;99248.08;;;1.88;100.00
46642;BME280;32370;41.864;-88.124;2023-04-25T12:16:50;99250.72;;;1.95;100.00
46642;BME280;32370;41.864;-88.124;2023-04-25T12:19:19;99252.22;;;1.87;100.00
46642;BME280;32370;41.864;-88.124;2023-04-25T12:21:48;99252.55;;;2.03;100.00
46642;BME280;32370;41.864;-88.124;2023-04-25T12:24:18;99253.86;;;2.13;100.00
46642;BME280;32370;41.864;-88.124;2023-04-25T12:26:50;99258.75;;;2.11;100.00
46642;BME280;32370;41.864;-88.124;2023-04-25T12:29:19;99264.78;;;2.27;100.00
46642;BME280;32370;41.864;-88.124;2023-04-25T12:31:49;99265.07;;;2.30;100.00
46642;BME280;32370;41.864;-88.124;2023-04-25T12:34:18;99270.37;;;1.95;100.00
46642;BME280;32370;41.864;-88.124;2023-04-25T12:36:47;99270.93;;;2.20;100.00
46642;BME280;32370;41.864;-88.124;2023-04-25T12:39:16;99284.47;;;2.41;100.00
46642;BME280;32370;41.864;-88.124;2023-04-25T12:41:45;99288.69;;;2.51;100.00
46642;BME280;32370;41.864;-88.124;2023-04-25T12:44:14;99294.43;;;2.04;100.00
46642;BME280;32370;41.864;-88.124;2023-04-25T12:46:43;99307.67;;;1.76;100.00
46642;BME280;32370;41.864;-88.124;2023-04-25T12:49:11;99318.76;;;2.04;100.00
46642;BME280;32370;41.864;-88.124;2023-04-25T12:51:39;99317.47;;;1.83;100.00
46642;BME280;32370;41.864;-88.124;2023-04-25T12:54:07;99308.59;;;1.63;100.00
46642;BME280;32370;41.864;-88.124;2023-04-25T12:56:35;99295.95;;;1.45;100.00